createdAt,value
2017-06-11T00:00:36.972Z,68.30
2017-06-11T00:03:05.394Z,68.20
2017-06-11T00:05:34.595Z,66.50
2017-06-11T00:08:03.011Z,66.50
2017-06-11T00:10:31.437Z,66.70
2017-06-11T00:13:00.653Z,67.60
2017-06-11T00:15:29.829Z,66.30
2017-06-11T00:17:59.029Z,68.10
2017-06-11T00:20:28.232Z,67.40
2017-06-11T00:22:57.412Z,67.20
2017-06-11T00:25:25.929Z,67.20
2017-06-11T00:27:54.389Z,67.70
2017-06-11T00:30:23.567Z,67.30
2017-06-11T00:32:51.968Z,67.30
2017-06-11T00:35:21.171Z,68.60
2017-06-11T00:37:49.596Z,68.50
2017-06-11T00:40:18.024Z,68.50
2017-06-11T00:42:47.233Z,69.50
2017-06-11T00:45:15.659Z,69.50
2017-06-11T00:47:44.084Z,69.30
2017-06-11T00:50:12.527Z,69.50
2017-06-11T00:52:40.948Z,69.80
2017-06-11T00:55:09.359Z,69.60
2017-06-11T00:57:37.828Z,69.70
2017-06-11T01:00:06.276Z,70.20
2017-06-11T01:02:35.482Z,69.50
2017-06-11T01:05:03.914Z,69.50
2017-06-11T01:07:32.327Z,70.10
2017-06-11T01:10:01.521Z,69.60
2017-06-11T01:12:30.737Z,70.70
2017-06-11T01:14:59.149Z,69.90
2017-06-11T01:17:27.588Z,69.70
2017-06-11T01:19:56.023Z,69.80
2017-06-11T01:22:24.441Z,69.80
2017-06-11T01:24:52.861Z,69.80
2017-06-11T01:27:21.335Z,70.20
2017-06-11T01:29:49.749Z,70.10
2017-06-11T01:32:18.182Z,70.00
2017-06-11T01:34:46.604Z,68.90
2017-06-11T01:37:15.040Z,69.30
2017-06-11T01:39:43.435Z,70.00
2017-06-11T01:42:11.887Z,70.00
2017-06-11T01:44:40.312Z,70.00
2017-06-11T01:47:08.737Z,71.00
2017-06-11T01:49:37.269Z,70.70
2017-06-11T01:52:05.676Z,70.40
2017-06-11T01:54:34.855Z,70.60
2017-06-11T01:57:03.298Z,70.50
2017-06-11T01:59:31.719Z,70.80
2017-06-11T02:02:00.133Z,70.20
2017-06-11T02:04:28.603Z,70.70
2017-06-11T02:06:57.765Z,70.60
2017-06-11T02:09:26.184Z,70.50
2017-06-11T02:11:54.608Z,70.50
2017-06-11T02:14:23.024Z,70.20
2017-06-11T02:16:52.141Z,70.60
2017-06-11T02:19:20.585Z,70.90
2017-06-11T02:21:49.089Z,70.50
2017-06-11T02:24:17.505Z,70.70
2017-06-11T02:26:45.940Z,70.00
2017-06-11T02:29:15.134Z,70.40
2017-06-11T02:31:44.339Z,70.10
2017-06-11T02:34:13.544Z,70.80
2017-06-11T02:36:41.955Z,70.90
2017-06-11T02:39:10.385Z,70.90
2017-06-11T02:41:39.537Z,70.30
2017-06-11T02:44:07.968Z,70.20
2017-06-11T02:46:36.385Z,70.90
2017-06-11T02:49:04.820Z,70.60
2017-06-11T02:51:33.997Z,70.70
2017-06-11T02:54:02.407Z,70.70
2017-06-11T02:56:30.901Z,71.00
2017-06-11T02:59:00.041Z,71.50
2017-06-11T03:01:28.449Z,71.20
2017-06-11T03:03:57.657Z,71.30
2017-06-11T03:06:26.834Z,71.90
2017-06-11T03:08:56.011Z,71.70
2017-06-11T03:11:23.736Z,71.60
2017-06-11T03:13:52.227Z,71.50
2017-06-11T03:16:20.654Z,71.90
2017-06-11T03:18:49.849Z,70.90
2017-06-11T03:21:19.037Z,70.90
2017-06-11T03:23:47.456Z,70.90
2017-06-11T03:26:15.900Z,71.20
2017-06-11T03:28:45.096Z,71.50
2017-06-11T03:31:14.290Z,71.60
2017-06-11T03:33:42.855Z,71.60
2017-06-11T03:36:11.267Z,71.60
2017-06-11T03:38:40.450Z,71.10
2017-06-11T03:41:08.869Z,71.10
2017-06-11T03:43:37.308Z,71.10
2017-06-11T03:46:05.717Z,71.70
2017-06-11T03:48:34.160Z,71.70
2017-06-11T03:51:02.595Z,71.50
2017-06-11T03:53:31.015Z,71.40
2017-06-11T03:55:59.455Z,71.10
2017-06-11T03:58:27.851Z,72.10
2017-06-11T04:00:56.281Z,72.70
2017-06-11T04:03:25.480Z,72.20
2017-06-11T04:05:53.924Z,72.20
2017-06-11T04:08:22.324Z,72.60
2017-06-11T04:10:51.532Z,72.20
2017-06-11T04:13:19.943Z,72.10
2017-06-11T04:15:48.361Z,72.60
2017-06-11T04:18:16.809Z,72.30
2017-06-11T04:20:45.287Z,72.00
2017-06-11T04:23:13.697Z,72.80
2017-06-11T04:25:42.168Z,72.60
2017-06-11T04:28:11.384Z,72.60
2017-06-11T04:30:39.788Z,72.40
2017-06-11T04:33:08.269Z,72.80
2017-06-11T04:35:36.689Z,72.80
2017-06-11T04:38:05.110Z,72.20
2017-06-11T04:40:34.296Z,72.50
2017-06-11T04:43:03.485Z,72.60
2017-06-11T04:45:31.896Z,72.50
2017-06-11T04:48:01.086Z,72.30
2017-06-11T04:50:30.276Z,71.50
2017-06-11T04:52:59.485Z,71.80
2017-06-11T04:55:27.937Z,71.50
2017-06-11T04:57:56.349Z,71.90
2017-06-11T05:00:24.745Z,72.10
2017-06-11T05:02:53.173Z,72.00
2017-06-11T05:05:21.688Z,70.90
2017-06-11T05:07:50.104Z,71.10
2017-06-11T05:10:18.552Z,71.60
2017-06-11T05:12:46.981Z,71.50
2017-06-11T05:15:15.400Z,71.10
2017-06-11T05:17:43.856Z,70.50
2017-06-11T05:20:13.025Z,70.10
2017-06-11T05:22:41.440Z,70.00
2017-06-11T05:25:10.753Z,70.20
2017-06-11T05:27:39.188Z,70.20
2017-06-11T05:30:07.607Z,70.10
2017-06-11T05:32:36.049Z,69.80
2017-06-11T05:35:04.471Z,69.60
2017-06-11T05:37:32.875Z,69.20
2017-06-11T05:40:01.324Z,69.80
2017-06-11T05:42:29.802Z,69.30
2017-06-11T05:44:58.292Z,69.10
2017-06-11T05:47:26.733Z,68.80
2017-06-11T05:49:55.144Z,68.50
2017-06-11T05:52:23.563Z,68.80
2017-06-11T05:54:52.005Z,68.40
2017-06-11T05:57:20.424Z,68.00
2017-06-11T05:59:48.836Z,68.40
2017-06-11T06:02:18.039Z,66.30
2017-06-11T06:04:46.535Z,66.30
2017-06-11T06:07:14.948Z,65.40
2017-06-11T06:09:43.395Z,65.30
2017-06-11T06:12:11.809Z,65.40
2017-06-11T06:14:40.566Z,64.70
2017-06-11T06:17:09.124Z,63.70
2017-06-11T06:19:37.712Z,63.90
2017-06-11T06:22:06.342Z,63.60
2017-06-11T06:24:34.811Z,63.50
2017-06-11T06:27:03.573Z,63.30
2017-06-11T06:29:32.099Z,63.30
2017-06-11T06:32:00.685Z,63.20
2017-06-11T06:34:29.128Z,63.20
2017-06-11T06:36:57.655Z,62.70
2017-06-11T06:39:26.174Z,62.50
2017-06-11T06:41:54.600Z,61.50
2017-06-11T06:44:24.164Z,61.80
2017-06-11T06:46:52.795Z,61.50
2017-06-11T06:49:21.257Z,61.40
2017-06-11T06:51:49.680Z,60.80
2017-06-11T06:54:19.113Z,61.80
2017-06-11T06:56:47.528Z,61.80
2017-06-11T06:59:15.938Z,61.20
2017-06-11T07:01:45.065Z,60.80
2017-06-11T07:04:13.517Z,59.80
2017-06-11T07:06:42.704Z,59.60
2017-06-11T07:09:11.127Z,59.50
2017-06-11T07:11:39.593Z,59.70
2017-06-11T07:14:08.012Z,59.40
2017-06-11T07:16:36.444Z,58.20
2017-06-11T07:19:04.855Z,58.20
2017-06-11T07:21:33.268Z,58.90
2017-06-11T07:24:01.724Z,57.50
2017-06-11T07:26:30.125Z,57.70
2017-06-11T07:28:58.534Z,58.00
2017-06-11T07:31:27.725Z,57.30
2017-06-11T07:33:56.917Z,57.80
2017-06-11T07:36:25.314Z,57.80
2017-06-11T07:38:55.208Z,58.40
2017-06-11T07:41:24.383Z,57.90
2017-06-11T07:43:52.795Z,58.40
2017-06-11T07:46:22.013Z,57.40
2017-06-11T07:48:50.427Z,57.40
2017-06-11T07:51:18.853Z,58.20
2017-06-11T07:53:47.320Z,57.40
2017-06-11T07:56:16.508Z,56.90
2017-06-11T07:58:44.908Z,56.80
2017-06-11T08:01:13.349Z,56.40
2017-06-11T08:03:41.753Z,56.40
2017-06-11T08:06:10.943Z,56.00
2017-06-11T08:08:40.133Z,55.70
2017-06-11T08:11:08.568Z,55.60
2017-06-11T08:13:36.976Z,55.60
2017-06-11T08:16:05.410Z,55.30
2017-06-11T08:18:33.841Z,54.60
2017-06-11T08:21:02.258Z,55.00
2017-06-11T08:23:30.708Z,53.70
2017-06-11T08:25:59.127Z,54.90
2017-06-11T08:28:27.552Z,54.50
2017-06-11T08:30:56.253Z,54.50
2017-06-11T08:33:24.980Z,54.00
2017-06-11T08:35:53.896Z,54.30
2017-06-11T08:38:22.346Z,53.70
2017-06-11T08:40:50.767Z,54.40
2017-06-11T08:43:19.201Z,53.50
2017-06-11T08:45:47.659Z,53.60
2017-06-11T08:48:16.084Z,53.80
2017-06-11T08:50:44.506Z,53.40
2017-06-11T08:53:13.707Z,53.30
2017-06-11T08:55:42.902Z,52.70
2017-06-11T08:58:13.043Z,52.30
2017-06-11T09:00:41.443Z,52.20
2017-06-11T09:03:09.876Z,52.50
2017-06-11T09:05:41.262Z,51.40
2017-06-11T09:08:11.702Z,51.40
2017-06-11T09:10:40.161Z,52.10
2017-06-11T09:13:08.584Z,50.80
2017-06-11T09:15:37.003Z,51.50
2017-06-11T09:18:05.449Z,49.80
2017-06-11T09:20:33.867Z,50.90
2017-06-11T09:23:02.309Z,50.20
2017-06-11T09:25:30.773Z,49.50
2017-06-11T09:27:59.182Z,50.10
2017-06-11T09:30:28.352Z,49.30
2017-06-11T09:32:56.876Z,48.50
2017-06-11T09:35:25.276Z,49.10
2017-06-11T09:37:53.692Z,48.80
2017-06-11T09:40:22.142Z,46.90
2017-06-11T09:42:51.297Z,46.20
2017-06-11T09:45:19.783Z,46.50
2017-06-11T09:47:49.065Z,47.80
2017-06-11T09:50:18.290Z,47.70
2017-06-11T09:52:46.812Z,47.50
2017-06-11T09:55:15.331Z,47.00
2017-06-11T09:57:43.771Z,49.00
2017-06-11T10:00:12.190Z,49.00
2017-06-11T10:02:41.426Z,48.90
2017-06-11T10:05:09.837Z,48.80
2017-06-11T10:07:38.278Z,49.40
2017-06-11T10:10:06.914Z,50.00
2017-06-11T10:12:35.336Z,50.00
2017-06-11T10:15:03.760Z,50.60
2017-06-11T10:17:32.424Z,49.70
2017-06-11T10:20:00.849Z,49.90
2017-06-11T10:22:30.054Z,50.20
2017-06-11T10:24:58.510Z,50.10
2017-06-11T10:27:26.929Z,50.60
2017-06-11T10:29:55.353Z,49.80
2017-06-11T10:32:23.820Z,49.90
2017-06-11T10:34:52.516Z,49.60
2017-06-11T10:37:20.941Z,49.90
2017-06-11T10:39:49.383Z,48.90
2017-06-11T10:42:17.979Z,49.30
2017-06-11T10:44:46.668Z,49.10
2017-06-11T10:47:15.148Z,47.40
2017-06-11T10:49:43.768Z,48.40
2017-06-11T10:52:12.325Z,49.70
2017-06-11T10:54:41.103Z,46.50
2017-06-11T10:57:09.861Z,48.20
2017-06-11T10:59:42.415Z,48.80
2017-06-11T11:02:10.955Z,48.90
2017-06-11T11:04:40.226Z,48.40
2017-06-11T11:07:08.760Z,48.70
2017-06-11T11:09:37.189Z,48.50
2017-06-11T11:12:05.248Z,48.90
2017-06-11T11:14:32.980Z,48.60
2017-06-11T11:17:01.585Z,49.10
2017-06-11T11:19:30.219Z,48.50
2017-06-11T11:21:59.437Z,48.80
2017-06-11T11:24:28.237Z,48.70
2017-06-11T11:26:56.720Z,48.00
2017-06-11T11:29:25.168Z,48.70
2017-06-11T11:31:53.902Z,49.20
2017-06-11T11:34:22.326Z,49.30
2017-06-11T11:36:50.945Z,48.40
2017-06-11T11:39:19.659Z,47.70
2017-06-11T11:41:48.195Z,47.80
2017-06-11T11:44:16.756Z,48.00
2017-06-11T11:46:45.179Z,48.00
2017-06-11T11:49:13.614Z,47.70
2017-06-11T11:51:42.820Z,48.10
2017-06-11T11:54:11.254Z,48.00
2017-06-11T11:56:39.655Z,47.80
2017-06-11T11:59:08.907Z,47.90
2017-06-11T12:01:37.329Z,47.80
2017-06-11T12:04:06.800Z,47.40
2017-06-11T12:06:35.224Z,47.30
2017-06-11T12:09:03.536Z,47.30
2017-06-11T12:11:31.982Z,47.30
2017-06-11T12:14:00.219Z,47.20
2017-06-11T12:16:28.637Z,47.30
2017-06-11T12:18:57.841Z,47.60
2017-06-11T12:21:26.321Z,47.50
2017-06-11T12:23:54.760Z,47.90
2017-06-11T12:26:23.376Z,47.80
2017-06-11T12:28:51.862Z,46.90
2017-06-11T12:31:20.645Z,46.30
2017-06-11T12:33:49.063Z,46.60
2017-06-11T12:36:17.506Z,47.10
2017-06-11T12:38:45.933Z,46.80
2017-06-11T12:41:14.356Z,45.80
2017-06-11T12:43:42.812Z,45.80
2017-06-11T12:46:11.287Z,45.70
2017-06-11T12:48:40.024Z,45.50
2017-06-11T12:51:08.519Z,44.70
2017-06-11T12:53:37.000Z,45.00
2017-06-11T12:56:05.433Z,47.00
2017-06-11T12:58:33.962Z,48.70
2017-06-11T13:01:02.392Z,46.10
2017-06-11T13:03:30.819Z,46.80
2017-06-11T13:05:59.255Z,47.20
2017-06-11T13:08:28.471Z,48.20
2017-06-11T13:10:56.877Z,48.20
2017-06-11T13:13:25.320Z,46.90
2017-06-11T13:15:53.752Z,47.90
2017-06-11T13:18:22.178Z,48.40
2017-06-11T13:20:50.663Z,46.30
2017-06-11T13:23:19.137Z,43.30
2017-06-11T13:25:47.577Z,44.80
2017-06-11T13:28:16.009Z,44.90
2017-06-11T13:30:44.445Z,45.20
2017-06-11T13:33:12.969Z,45.80
2017-06-11T13:35:41.640Z,46.30
2017-06-11T13:38:10.133Z,47.50
2017-06-11T13:40:38.603Z,47.30
2017-06-11T13:43:07.051Z,47.50
2017-06-11T13:45:35.481Z,47.40
2017-06-11T13:48:03.896Z,47.20
2017-06-11T13:50:32.412Z,46.90
2017-06-11T13:53:00.850Z,46.90
2017-06-11T13:55:29.256Z,47.20
2017-06-11T13:57:57.743Z,46.30
2017-06-11T14:00:26.914Z,45.20
2017-06-11T14:02:55.377Z,45.20
2017-06-11T14:05:23.818Z,45.00
2017-06-11T14:07:52.234Z,45.50
2017-06-11T14:10:20.654Z,45.90
2017-06-11T14:12:49.864Z,46.50
2017-06-11T14:15:18.287Z,46.50
2017-06-11T14:17:46.726Z,46.40
2017-06-11T14:20:15.186Z,46.50
2017-06-11T14:22:43.409Z,46.60
2017-06-11T14:25:12.571Z,46.80
2017-06-11T14:27:40.831Z,46.30
2017-06-11T14:30:19.871Z,46.60
2017-06-11T14:32:48.366Z,47.00
2017-06-11T14:35:16.789Z,47.10
2017-06-11T14:37:45.212Z,48.00
2017-06-11T14:40:14.473Z,48.80
2017-06-11T14:42:42.897Z,48.80
2017-06-11T14:45:11.312Z,49.50
2017-06-11T14:47:39.762Z,49.60
2017-06-11T14:50:08.364Z,49.90
2017-06-11T14:52:36.757Z,49.40
2017-06-11T14:55:05.283Z,48.50
2017-06-11T14:57:33.709Z,47.50
2017-06-11T15:00:02.116Z,47.00
2017-06-11T15:02:30.580Z,46.70
2017-06-11T15:04:59.340Z,47.80
2017-06-11T15:07:28.049Z,48.40
2017-06-11T15:09:56.505Z,48.80
2017-06-11T15:12:24.919Z,46.00
2017-06-11T15:14:53.328Z,48.50
2017-06-11T15:17:22.537Z,49.40
2017-06-11T15:19:50.957Z,49.40
2017-06-11T15:22:19.368Z,49.70
2017-06-11T15:24:48.103Z,50.30
2017-06-11T15:27:16.529Z,50.70
2017-06-11T15:29:44.949Z,51.20
2017-06-11T15:32:13.443Z,52.30
2017-06-11T15:34:41.876Z,52.70
2017-06-11T15:37:11.056Z,52.50
2017-06-11T15:39:39.522Z,52.40
2017-06-11T15:42:07.930Z,52.90
2017-06-11T15:44:36.385Z,52.70
2017-06-11T15:47:04.827Z,53.60
2017-06-11T15:49:33.237Z,53.80
2017-06-11T15:52:01.659Z,54.40
2017-06-11T15:54:30.104Z,54.30
2017-06-11T15:56:58.532Z,54.40
2017-06-11T15:59:28.516Z,54.50
2017-06-11T16:01:57.164Z,54.50
2017-06-11T16:04:25.597Z,54.70
2017-06-11T16:06:53.815Z,54.60
2017-06-11T16:09:22.298Z,54.70
2017-06-11T16:11:50.705Z,55.00
2017-06-11T16:14:19.916Z,55.30
2017-06-11T16:16:48.492Z,55.30
2017-06-11T16:19:17.100Z,56.80
2017-06-11T16:21:45.610Z,58.20
2017-06-11T16:24:14.085Z,57.60
2017-06-11T16:26:42.559Z,56.70
2017-06-11T16:29:11.065Z,57.80
2017-06-11T16:31:39.532Z,57.80
2017-06-11T16:34:07.972Z,59.10
2017-06-11T16:36:36.391Z,59.30
2017-06-11T16:39:03.953Z,60.00
2017-06-11T16:41:32.367Z,60.40
2017-06-11T16:44:00.800Z,61.50
2017-06-11T16:46:29.249Z,60.90
2017-06-11T16:48:57.660Z,61.50
2017-06-11T16:51:26.689Z,62.30
2017-06-11T16:53:55.904Z,61.50
2017-06-11T16:56:26.724Z,61.50
2017-06-11T16:58:55.927Z,62.50
2017-06-11T17:01:24.343Z,62.40
2017-06-11T17:03:52.765Z,61.30
2017-06-11T17:06:21.233Z,61.70
2017-06-11T17:08:49.680Z,61.10
2017-06-11T17:11:18.272Z,60.70
2017-06-11T17:13:46.728Z,61.20
2017-06-11T17:16:15.182Z,62.00
2017-06-11T17:18:44.410Z,62.00
2017-06-11T17:21:12.825Z,62.00
2017-06-11T17:23:41.413Z,61.70
2017-06-11T17:26:09.877Z,59.50
2017-06-11T17:28:38.314Z,61.20
2017-06-11T17:31:06.806Z,61.50
2017-06-11T17:33:35.279Z,60.70
2017-06-11T17:36:03.762Z,61.90
2017-06-11T17:38:32.415Z,61.20
2017-06-11T17:41:01.167Z,60.60
2017-06-11T17:43:29.625Z,61.70
2017-06-11T17:45:58.100Z,62.20
2017-06-11T17:48:26.530Z,61.90
2017-06-11T17:50:54.975Z,61.70
2017-06-11T17:53:23.429Z,59.90
2017-06-11T17:55:51.851Z,61.20
2017-06-11T17:58:20.312Z,61.50
2017-06-11T18:00:48.721Z,61.10
2017-06-11T18:03:17.144Z,60.10
2017-06-11T18:05:45.610Z,61.50
2017-06-11T18:08:14.096Z,59.60
2017-06-11T18:10:42.584Z,61.10
2017-06-11T18:13:11.026Z,61.10
2017-06-11T18:15:39.440Z,61.10
2017-06-11T18:18:07.868Z,61.30
2017-06-11T18:20:36.298Z,61.70
2017-06-11T18:23:04.736Z,61.30
2017-06-11T18:25:33.200Z,62.80
2017-06-11T18:28:01.027Z,60.00
2017-06-11T18:30:30.323Z,59.70
2017-06-11T18:33:00.197Z,60.20
2017-06-11T18:35:29.865Z,60.60
2017-06-11T18:37:58.993Z,59.80
2017-06-11T18:40:35.074Z,60.00
2017-06-11T18:43:05.019Z,59.80
2017-06-11T18:45:34.445Z,59.70
2017-06-11T18:48:03.629Z,60.80
2017-06-11T18:50:33.454Z,60.70
2017-06-11T18:53:02.843Z,61.80
2017-06-11T18:55:31.287Z,63.00
2017-06-11T18:58:01.007Z,61.40
2017-06-11T19:00:30.868Z,60.20
2017-06-11T19:02:59.224Z,60.00
2017-06-11T19:05:27.657Z,60.40
2017-06-11T19:07:56.528Z,60.90
2017-06-11T19:10:24.999Z,60.90
2017-06-11T19:12:53.450Z,61.00
2017-06-11T19:15:21.947Z,59.50
2017-06-11T19:17:50.395Z,59.00
2017-06-11T19:20:19.881Z,61.80
2017-06-11T19:22:49.752Z,59.80
2017-06-11T19:25:18.140Z,60.90
2017-06-11T19:27:46.587Z,59.60
2017-06-11T19:30:15.045Z,59.50
2017-06-11T19:32:43.498Z,59.60
2017-06-11T19:35:12.721Z,61.00
2017-06-11T19:37:41.305Z,60.90
2017-06-11T19:40:09.495Z,58.90
2017-06-11T19:42:37.920Z,58.70
2017-06-11T19:45:06.193Z,58.20
2017-06-11T19:47:34.671Z,59.40
2017-06-11T19:50:03.093Z,59.40
2017-06-11T19:52:31.577Z,59.70
2017-06-11T19:55:00.025Z,59.60
2017-06-11T19:57:29.212Z,57.90
2017-06-11T19:59:57.670Z,58.20
2017-06-11T20:02:26.088Z,58.10
2017-06-11T20:04:54.561Z,57.80
2017-06-11T20:07:23.008Z,58.10
2017-06-11T20:09:51.425Z,58.50
2017-06-11T20:12:19.881Z,57.90
2017-06-11T20:14:48.332Z,57.40
2017-06-11T20:17:16.778Z,57.90
2017-06-11T20:19:45.199Z,57.60
2017-06-11T20:22:13.648Z,58.00
2017-06-11T20:24:42.111Z,57.90
2017-06-11T20:27:11.357Z,57.70
2017-06-11T20:29:39.799Z,57.70
2017-06-11T20:32:08.231Z,57.90
2017-06-11T20:34:36.725Z,57.90
2017-06-11T20:37:05.158Z,57.50
2017-06-11T20:39:33.572Z,57.90
2017-06-11T20:42:01.981Z,57.80
2017-06-11T20:44:30.053Z,58.10
2017-06-11T20:46:58.465Z,58.00
2017-06-11T20:51:52.207Z,58.00
2017-06-11T20:54:20.628Z,58.50
2017-06-11T20:56:49.146Z,58.50
2017-06-11T20:59:17.593Z,58.40
2017-06-11T21:01:46.010Z,59.30
2017-06-11T21:04:14.424Z,59.30
2017-06-11T21:06:42.864Z,59.10
2017-06-11T21:09:11.276Z,58.50
2017-06-11T21:11:39.723Z,59.00
2017-06-11T21:14:08.978Z,58.90
2017-06-11T21:16:37.399Z,58.90
2017-06-11T21:19:05.853Z,58.80
2017-06-11T21:21:34.338Z,59.10
2017-06-11T21:24:02.780Z,59.00
2017-06-11T21:26:31.196Z,58.40
2017-06-11T21:28:59.666Z,58.80
2017-06-11T21:31:28.113Z,58.00
2017-06-11T21:33:56.541Z,58.40
2017-06-11T21:36:24.991Z,58.00
2017-06-11T21:38:53.422Z,58.50
2017-06-11T21:41:21.843Z,58.70
2017-06-11T21:43:50.288Z,58.60
2017-06-11T21:46:19.502Z,59.30
2017-06-11T21:48:47.943Z,59.30
2017-06-11T21:51:16.387Z,60.70
2017-06-11T21:53:44.796Z,60.50
2017-06-11T21:56:12.868Z,60.80
2017-06-11T21:58:41.324Z,61.20
2017-06-11T22:01:09.752Z,62.50
2017-06-11T22:03:38.922Z,62.50
2017-06-11T22:06:07.503Z,62.90
2017-06-11T22:08:35.937Z,63.80
2017-06-11T22:11:04.396Z,64.40
2017-06-11T22:13:33.626Z,65.40
2017-06-11T22:16:02.041Z,65.40
2017-06-11T22:18:30.452Z,65.70
2017-06-11T22:20:58.901Z,66.00
2017-06-11T22:23:27.317Z,65.70
2017-06-11T22:25:55.753Z,65.40
2017-06-11T22:28:24.189Z,65.00
2017-06-11T22:30:52.648Z,65.50
2017-06-11T22:33:21.068Z,65.50
2017-06-11T22:35:49.528Z,65.10
2017-06-11T22:38:17.994Z,65.40
2017-06-11T22:40:46.444Z,65.70
2017-06-11T22:43:14.887Z,66.20
2017-06-11T22:45:43.298Z,66.10
2017-06-11T22:48:11.814Z,66.90
2017-06-11T22:50:40.244Z,66.60
2017-06-11T22:53:08.664Z,67.10
2017-06-11T22:55:37.087Z,67.30
2017-06-11T22:58:05.523Z,67.20
2017-06-11T23:00:33.965Z,67.20
2017-06-11T23:03:02.381Z,67.40
2017-06-11T23:05:31.598Z,66.00
2017-06-11T23:08:00.024Z,66.00
2017-06-11T23:10:28.443Z,66.50
2017-06-11T23:12:56.904Z,66.50
2017-06-11T23:15:26.102Z,67.00
2017-06-11T23:17:55.271Z,66.30
2017-06-11T23:20:23.724Z,66.20
2017-06-11T23:22:52.143Z,67.20
2017-06-11T23:25:20.552Z,66.60
2017-06-11T23:27:48.996Z,66.40
2017-06-11T23:30:17.416Z,67.10
2017-06-11T23:32:45.832Z,66.70
2017-06-11T23:35:14.331Z,66.70
2017-06-11T23:37:42.745Z,66.20
2017-06-11T23:40:11.196Z,66.00
2017-06-11T23:42:39.644Z,66.70
2017-06-11T23:45:08.064Z,65.60
2017-06-11T23:47:37.271Z,65.70
2017-06-11T23:50:05.735Z,65.60
2017-06-11T23:52:34.915Z,65.20
2017-06-11T23:55:03.332Z,65.00
2017-06-11T23:57:31.780Z,64.70
